• Join FlightAware (Why Join?)
  • Login
  • US Flag 
06:35AM EDT


 

Airport Tracker/Info


-or-


 

Live Flight TrackerFlight Track Log ✈ DAL6048 ✈ 01-May-2013 ✈ KLGA - KMHT

Flight Track Log - Related Links

Times and Time Zones

All times are in EDT time to prevent confusion due to time zone crossing. See the DAL6048 flight status page for this flight to view local times or setup timezone preferences in your user account.

Time Position Orientation Groundspeed Altitude Reporting Facility
EDT Latitude Longitude Course Direction KTS MPH feet Rate Location/Type
12:04PM 40.7500 -73.8500 56° Northeast 173 199 1,700  Level New York TRACON
12:05PM 40.7858 -73.7722 59° Northeast 189 217 7,100 2,700 Climbing Boston Center
12:06PM 40.8467 -73.7378 23° Northeast 201 231 9,400 2,220 Climbing Boston Center
12:07PM 40.9136 -73.6953 26° Northeast 232 267 11,600 1,980 Climbing Boston Center
12:08PM 40.9853 -73.6444 28° Northeast 268 308 13,400 1,740 Climbing Boston Center
12:09PM 41.5195 -73.2444 56° Northeast  Level FlightAware Approximate
12:09PM 41.0711 -73.5908 25° Northeast 304 350 15,100  Level Boston Center
12:10PM 41.1656 -73.5292 26° Northeast 321 369 16,600 900 Climbing Boston Center
12:11PM 41.2494 -73.4700 28° Northeast 351 404 17,000 180 Climbing Boston Center
12:12PM 41.3522 -73.4025 26° Northeast 365 420 17,000  Level Boston Center
12:13PM 41.4319 -73.3483 27° Northeast 382 440 17,000  Level Boston Center
12:14PM 41.5347 -73.2444 37° Northeast 388 447 17,000  Level Boston Center
12:16PM 41.6042 -73.1508 45° Northeast 388 447 17,000  Level Boston Center
12:17PM 41.7214 -73.0492 33° Northeast 383 441 17,000  Level Boston Center
12:18PM 41.8178 -72.9750 30° Northeast 383 441 17,000  Level Boston Center
12:19PM 41.9075 -72.9200 25° Northeast 383 441 17,000 -300 Level Boston Center
12:20PM 42.0036 -72.8536 27° Northeast 388 447 16,500 -900 Descending Boston Center
12:21PM 42.1061 -72.7814 28° Northeast 388 447 15,300 -780 Descending Boston Center
12:22PM 42.1894 -72.7231 27° Northeast 375 432 15,000 -180 Descending Boston Center
12:23PM 42.2836 -72.6561 28° Northeast 375 432 15,000  Level Boston Center
12:24PM 42.3775 -72.5892 28° Northeast 375 432 15,000 -360 Level Boston Center
12:25PM 42.4608 -72.4711 46° Northeast 375 432 14,300 -900 Descending Boston Center
12:26PM 42.5317 -72.3639 48° Northeast 375 432 13,300 -1,020 Descending Boston Center
12:27PM 42.5961 -72.2625 49° Northeast 375 432 12,300 -1,140 Descending Boston Center
12:28PM 42.6544 -72.1775 47° Northeast 346 398 11,100 -1,380 Descending Boston Center
12:29PM 42.7144 -72.0869 48° Northeast 301 346 9,600 -1,080 Descending Boston Center
12:30PM 42.7561 -72.0189 50° Northeast 267 307 9,000 -900 Descending Boston Center
12:31PM 42.7786 -71.9197 73° East 247 284 7,800 -1,200 Descending Boston Center
12:32PM 42.7969 -71.8431 72° East 237 273 6,700 -1,200 Descending Boston Center
12:33PM 42.8381 -71.7633 55° Northeast 232 267 5,500 -1,320 Descending Boston Center
12:34PM 42.8586 -71.6894 69° East 232 267 4,100 -1,320 Descending Boston Center
12:35PM 42.8578 -71.5989 91° East 219 252 2,900 -1,200 Descending Boston Center